createdAt,value
2024-02-02T00:00:52.297Z,8.77
2024-02-02T00:03:19.951Z,8.20
2024-02-02T00:05:47.698Z,8.18
2024-02-02T00:08:15.603Z,7.28
2024-02-02T00:10:43.213Z,6.22
2024-02-02T00:13:10.705Z,6.32
2024-02-02T00:15:38.170Z,6.40
2024-02-02T00:18:05.700Z,7.10
2024-02-02T00:20:33.201Z,6.68
2024-02-02T00:23:00.698Z,6.93
2024-02-02T00:25:28.318Z,8.00
2024-02-02T00:27:55.744Z,8.30
2024-02-02T00:30:23.309Z,8.85
2024-02-02T00:32:51.031Z,8.82
2024-02-02T00:35:18.593Z,9.65
2024-02-02T00:37:46.198Z,9.13
2024-02-02T00:40:13.998Z,9.65
2024-02-02T00:42:42.591Z,10.10
2024-02-02T00:45:10.159Z,9.90
2024-02-02T00:47:37.652Z,9.63
2024-02-02T00:50:07.178Z,8.27
2024-02-02T00:52:34.900Z,9.15
2024-02-02T00:55:03.201Z,9.10
2024-02-02T00:57:31.098Z,9.80
2024-02-02T00:59:58.587Z,8.27
2024-02-02T01:02:26.182Z,8.95
2024-02-02T01:04:53.749Z,9.27
2024-02-02T01:07:21.437Z,8.50
2024-02-02T01:09:48.795Z,9.38
2024-02-02T01:12:16.463Z,8.38
2024-02-02T01:14:44.086Z,8.32
2024-02-02T01:17:11.560Z,7.90
2024-02-02T01:19:39.171Z,7.72
2024-02-02T01:22:07.336Z,7.70
2024-02-02T01:24:34.940Z,6.85
2024-02-02T01:27:02.502Z,7.13
2024-02-02T01:29:30.857Z,7.57
2024-02-02T01:31:58.285Z,7.53
2024-02-02T01:34:25.818Z,7.82
2024-02-02T01:36:53.477Z,7.50
2024-02-02T01:39:21.082Z,6.55
2024-02-02T01:41:48.744Z,6.95
2024-02-02T01:44:16.600Z,6.50
2024-02-02T01:46:50.644Z,6.53
2024-02-02T01:49:18.202Z,6.15
2024-02-02T01:51:45.718Z,5.95
2024-02-02T01:54:13.626Z,5.35
2024-02-02T01:56:42.069Z,5.20
2024-02-02T01:59:09.585Z,5.22
2024-02-02T02:01:37.100Z,5.60
2024-02-02T02:04:04.960Z,5.55
2024-02-02T02:06:32.908Z,4.85
2024-02-02T02:09:00.340Z,5.00
2024-02-02T02:11:27.706Z,5.63
2024-02-02T02:13:56.173Z,5.32
2024-02-02T02:16:23.613Z,5.53
2024-02-02T02:18:56.161Z,6.13
2024-02-02T02:21:30.328Z,5.72
2024-02-02T02:23:58.123Z,5.22
2024-02-02T02:26:26.608Z,5.97
2024-02-02T02:28:54.092Z,5.88
2024-02-02T02:31:21.617Z,5.50
2024-02-02T02:33:49.174Z,6.15
2024-02-02T02:36:16.751Z,6.32
2024-02-02T02:38:45.217Z,6.68
2024-02-02T02:41:17.588Z,6.68
2024-02-02T02:43:45.063Z,5.68
2024-02-02T02:46:12.969Z,7.15
2024-02-02T02:48:40.593Z,6.07
2024-02-02T02:51:08.219Z,5.80
2024-02-02T02:53:35.732Z,7.22
2024-02-02T02:56:04.668Z,7.05
2024-02-02T02:58:32.552Z,5.45
2024-02-02T03:00:59.987Z,6.30
2024-02-02T03:03:27.476Z,7.18
2024-02-02T03:05:55.301Z,6.15
2024-02-02T03:08:22.909Z,6.68
2024-02-02T03:10:50.568Z,6.80
2024-02-02T03:13:18.133Z,6.30
2024-02-02T03:15:46.253Z,6.57
2024-02-02T03:18:15.921Z,7.03
2024-02-02T03:20:43.554Z,6.13
2024-02-02T03:23:11.228Z,7.25
2024-02-02T03:25:38.642Z,6.63
2024-02-02T03:28:06.346Z,6.57
2024-02-02T03:30:33.957Z,7.10
2024-02-02T03:33:02.444Z,7.47
2024-02-02T03:35:30.033Z,6.82
2024-02-02T03:37:58.135Z,5.93
2024-02-02T03:40:25.744Z,7.38
2024-02-02T03:42:53.418Z,6.63
2024-02-02T03:45:20.756Z,6.78
2024-02-02T03:47:48.343Z,5.93
2024-02-02T03:50:15.809Z,6.68
2024-02-02T03:52:43.233Z,7.13
2024-02-02T03:55:14.548Z,7.15
2024-02-02T03:57:42.061Z,6.80
2024-02-02T04:00:11.462Z,7.20
2024-02-02T04:02:43.591Z,7.77
2024-02-02T04:05:11.862Z,6.95
2024-02-02T04:07:39.378Z,7.00
2024-02-02T04:10:08.528Z,7.15
2024-02-02T04:12:36.498Z,7.18
2024-02-02T04:15:04.265Z,7.30
2024-02-02T04:17:32.539Z,7.07
2024-02-02T04:20:00.357Z,6.78
2024-02-02T04:22:27.912Z,12.25
2024-02-02T04:25:04.063Z,8.02
2024-02-02T04:27:32.054Z,7.72
2024-02-02T04:30:00.477Z,8.45
2024-02-02T04:32:27.998Z,9.35
2024-02-02T04:34:55.606Z,7.60
2024-02-02T04:37:23.391Z,6.88
2024-02-02T04:39:53.235Z,7.80
2024-02-02T04:42:20.615Z,7.22
2024-02-02T04:44:48.206Z,7.95
2024-02-02T04:47:15.780Z,8.13
2024-02-02T04:49:43.421Z,8.25
2024-02-02T04:52:11.247Z,8.00
2024-02-02T04:54:39.216Z,7.45
2024-02-02T04:57:06.715Z,9.13
2024-02-02T04:59:34.674Z,8.88
2024-02-02T05:02:06.092Z,8.88
2024-02-02T05:04:34.159Z,7.68
2024-02-02T05:07:02.400Z,9.68
2024-02-02T05:09:30.014Z,10.30
2024-02-02T05:11:57.561Z,8.30
2024-02-02T05:14:25.021Z,9.50
2024-02-02T05:16:53.432Z,8.35
2024-02-02T05:19:20.880Z,7.15
2024-02-02T05:21:48.455Z,8.20
2024-02-02T05:24:29.472Z,6.63
2024-02-02T05:27:04.643Z,8.73
2024-02-02T05:29:32.189Z,7.85
2024-02-02T05:31:59.671Z,6.80
2024-02-02T05:34:27.459Z,7.25
2024-02-02T05:36:55.004Z,7.40
2024-02-02T05:39:22.511Z,7.32
2024-02-02T05:41:52.427Z,8.05
2024-02-02T05:44:19.892Z,8.00
2024-02-02T05:46:47.361Z,9.05
2024-02-02T05:49:14.986Z,9.27
2024-02-02T05:51:42.633Z,9.77
2024-02-02T05:54:10.318Z,7.40
2024-02-02T05:56:37.928Z,7.72
2024-02-02T05:59:05.458Z,7.18
2024-02-02T06:01:32.997Z,7.15
2024-02-02T06:04:00.568Z,7.60
2024-02-02T06:06:29.586Z,9.18
2024-02-02T06:09:00.360Z,7.57
2024-02-02T06:11:29.582Z,7.72
2024-02-02T06:13:58.683Z,7.35
2024-02-02T06:16:27.260Z,7.28
2024-02-02T06:18:55.796Z,6.30
2024-02-02T06:21:23.650Z,6.47
2024-02-02T06:23:51.095Z,5.75
2024-02-02T06:26:18.534Z,6.50
2024-02-02T06:28:46.676Z,5.45
2024-02-02T06:31:16.899Z,5.55
2024-02-02T06:33:44.635Z,6.85
2024-02-02T06:36:12.208Z,5.63
2024-02-02T06:38:39.702Z,4.22
2024-02-02T06:41:08.848Z,5.80
2024-02-02T06:43:36.268Z,5.40
2024-02-02T06:46:03.705Z,5.35
2024-02-02T06:48:31.495Z,5.15
2024-02-02T06:51:00.162Z,5.43
2024-02-02T06:53:34.011Z,4.93
2024-02-02T06:56:01.608Z,4.88
2024-02-02T06:58:42.940Z,5.30
2024-02-02T07:01:11.198Z,4.75
2024-02-02T07:03:38.941Z,4.75
2024-02-02T07:06:07.105Z,4.85
2024-02-02T07:08:34.966Z,4.43
2024-02-02T07:11:23.879Z,6.03
2024-02-02T07:13:53.410Z,5.70
2024-02-02T07:16:29.121Z,4.97
2024-02-02T07:18:56.982Z,4.97
2024-02-02T07:21:42.696Z,5.38
2024-02-02T07:24:11.265Z,4.43
2024-02-02T07:26:39.077Z,4.32
2024-02-02T07:29:07.155Z,3.95
2024-02-02T07:31:42.581Z,4.45
2024-02-02T07:34:30.117Z,4.57
2024-02-02T07:36:58.022Z,5.00
2024-02-02T07:39:31.042Z,3.97
2024-02-02T07:41:59.507Z,3.13
2024-02-02T07:44:27.158Z,3.72
2024-02-02T07:46:54.735Z,2.80
2024-02-02T07:49:22.507Z,4.88
2024-02-02T07:51:50.152Z,3.60
2024-02-02T07:54:18.377Z,3.30
2024-02-02T07:56:45.846Z,2.65
2024-02-02T07:59:13.161Z,3.17
2024-02-02T08:01:40.807Z,3.20
2024-02-02T08:04:08.708Z,3.30
2024-02-02T08:06:36.364Z,3.20
2024-02-02T08:09:04.110Z,2.70
2024-02-02T08:11:37.081Z,1.70
2024-02-02T08:14:23.632Z,1.90
2024-02-02T08:16:51.177Z,1.90
2024-02-02T08:19:19.453Z,1.85
2024-02-02T08:21:48.030Z,1.90
2024-02-02T08:24:15.467Z,1.48
2024-02-02T08:26:43.026Z,1.23
2024-02-02T08:29:10.499Z,1.50
2024-02-02T08:31:38.280Z,1.67
2024-02-02T08:34:06.428Z,1.50
2024-02-02T08:36:34.115Z,1.40
2024-02-02T08:39:01.665Z,1.42
2024-02-02T08:41:30.054Z,1.40
2024-02-02T08:43:58.316Z,1.23
2024-02-02T08:46:26.602Z,1.10
2024-02-02T08:48:56.612Z,1.17
2024-02-02T08:51:25.460Z,1.17
2024-02-02T08:53:56.371Z,1.02
2024-02-02T08:56:25.482Z,1.30
2024-02-02T08:58:53.390Z,1.00
2024-02-02T09:01:39.838Z,1.35
2024-02-02T09:04:07.690Z,1.30
2024-02-02T09:06:39.018Z,1.40
2024-02-02T09:09:09.746Z,1.30
2024-02-02T09:11:37.341Z,1.20
2024-02-02T09:14:08.380Z,1.42
2024-02-02T09:16:43.722Z,1.15
2024-02-02T09:19:25.274Z,0.70
2024-02-02T09:21:53.653Z,1.15
2024-02-02T09:24:33.355Z,1.40
2024-02-02T09:27:01.095Z,1.33
2024-02-02T09:29:28.857Z,1.40
2024-02-02T09:31:56.439Z,1.10
2024-02-02T09:34:26.059Z,1.33
2024-02-02T09:36:54.799Z,0.98
2024-02-02T09:39:31.525Z,0.88
2024-02-02T09:42:02.225Z,1.35
2024-02-02T09:44:32.746Z,1.48
2024-02-02T09:47:20.615Z,1.98
2024-02-02T09:49:57.245Z,1.40
2024-02-02T09:52:39.535Z,1.75
2024-02-02T09:55:13.514Z,1.30
2024-02-02T09:57:41.108Z,1.90
2024-02-02T10:00:15.844Z,1.48
2024-02-02T10:02:48.431Z,1.42
2024-02-02T10:05:22.167Z,1.60
2024-02-02T10:08:08.014Z,1.25
2024-02-02T10:10:42.498Z,2.47
2024-02-02T10:13:28.294Z,1.52
2024-02-02T10:16:16.795Z,1.30
2024-02-02T10:18:44.320Z,1.00
2024-02-02T10:21:17.869Z,1.10
2024-02-02T10:24:08.623Z,1.40
2024-02-02T10:26:54.374Z,1.38
2024-02-02T10:29:25.916Z,1.27
2024-02-02T10:31:56.062Z,0.88
2024-02-02T10:34:29.864Z,1.00
2024-02-02T10:37:03.777Z,0.75
2024-02-02T10:39:50.199Z,1.15
2024-02-02T10:42:28.337Z,0.90
2024-02-02T10:44:58.652Z,0.90
2024-02-02T10:47:46.618Z,1.23
2024-02-02T10:50:14.234Z,0.80
2024-02-02T10:52:57.847Z,0.85
2024-02-02T10:55:42.008Z,1.00
2024-02-02T10:58:29.284Z,0.98
2024-02-02T11:01:07.597Z,0.80
2024-02-02T11:03:42.437Z,1.23
2024-02-02T11:06:24.500Z,0.93
2024-02-02T11:09:01.468Z,0.73
2024-02-02T11:11:31.876Z,1.55
2024-02-02T11:14:13.289Z,0.73
2024-02-02T11:16:49.584Z,0.93
2024-02-02T11:19:35.899Z,0.80
2024-02-02T11:22:15.812Z,0.63
2024-02-02T11:24:52.221Z,0.70
2024-02-02T11:27:25.099Z,0.70
2024-02-02T11:30:07.692Z,0.55
2024-02-02T11:32:48.411Z,0.90
2024-02-02T11:35:21.125Z,1.02
2024-02-02T11:37:54.338Z,0.60
2024-02-02T11:40:24.264Z,0.95
2024-02-02T11:42:57.309Z,0.80
2024-02-02T11:45:29.802Z,1.60
2024-02-02T11:48:06.878Z,1.00
2024-02-02T11:50:43.215Z,1.38
2024-02-02T11:53:29.193Z,0.82
2024-02-02T11:56:01.548Z,1.20
2024-02-02T11:58:31.319Z,0.70
2024-02-02T12:01:18.404Z,0.93
2024-02-02T12:04:01.515Z,0.80
2024-02-02T12:06:32.851Z,0.60
2024-02-02T12:09:19.267Z,0.80
2024-02-02T12:11:52.189Z,1.13
2024-02-02T12:14:23.866Z,1.00
2024-02-02T12:16:52.130Z,0.90
2024-02-02T12:19:19.834Z,0.90
2024-02-02T12:21:48.858Z,1.00
2024-02-02T12:24:18.355Z,1.00
2024-02-02T12:26:49.125Z,0.90
2024-02-02T12:29:17.278Z,0.77
2024-02-02T12:31:45.646Z,0.63
2024-02-02T12:34:16.162Z,1.00
2024-02-02T12:36:43.967Z,0.90
2024-02-02T12:39:11.767Z,1.65
2024-02-02T12:41:39.634Z,1.90
2024-02-02T12:44:10.373Z,1.10
2024-02-02T12:46:48.789Z,1.00
2024-02-02T12:49:16.650Z,1.10
2024-02-02T12:51:45.227Z,0.80
2024-02-02T12:54:13.697Z,0.70
2024-02-02T12:56:41.369Z,1.00
2024-02-02T12:59:12.621Z,0.95
2024-02-02T13:01:40.590Z,0.80
2024-02-02T13:04:08.226Z,1.20
2024-02-02T13:06:36.412Z,1.10
2024-02-02T13:09:23.292Z,0.80
2024-02-02T13:11:54.132Z,1.17
2024-02-02T13:14:39.706Z,1.30
2024-02-02T13:17:11.165Z,0.95
2024-02-02T13:19:45.624Z,1.02
2024-02-02T13:22:35.081Z,1.33
2024-02-02T13:25:03.069Z,1.02
2024-02-02T13:27:31.792Z,1.80
2024-02-02T13:30:00.892Z,1.10
2024-02-02T13:32:34.084Z,0.98
2024-02-02T13:37:30.975Z,0.80
2024-02-02T13:40:00.635Z,0.90
2024-02-02T13:42:37.747Z,0.80
2024-02-02T13:45:17.809Z,1.00
2024-02-02T13:47:54.920Z,0.90
2024-02-02T13:50:31.417Z,1.05
2024-02-02T13:52:59.316Z,1.00
2024-02-02T13:55:34.483Z,1.10
2024-02-02T13:58:02.641Z,1.10
2024-02-02T14:00:33.974Z,1.00
2024-02-02T14:03:09.583Z,1.30
2024-02-02T14:05:38.456Z,1.05
2024-02-02T14:08:10.058Z,0.85
2024-02-02T14:11:21.026Z,1.02
2024-02-02T14:14:12.690Z,1.25
2024-02-02T14:16:51.184Z,1.10
2024-02-02T14:19:27.313Z,1.48
2024-02-02T14:22:09.214Z,0.90
2024-02-02T14:24:52.926Z,1.23
2024-02-02T14:27:34.426Z,1.52
2024-02-02T14:30:05.535Z,1.20
2024-02-02T14:32:41.279Z,1.25
2024-02-02T14:35:13.718Z,1.45
2024-02-02T14:37:44.703Z,1.25
2024-02-02T14:40:14.615Z,1.40
2024-02-02T14:42:54.130Z,1.15
2024-02-02T14:45:43.054Z,1.13
2024-02-02T14:48:10.936Z,1.00
2024-02-02T14:50:40.162Z,1.10
2024-02-02T14:53:15.725Z,0.98
2024-02-02T14:55:49.048Z,1.00
2024-02-02T14:58:17.056Z,1.20
2024-02-02T15:00:49.315Z,1.20
2024-02-02T15:03:19.300Z,1.02
2024-02-02T15:05:56.884Z,1.80
2024-02-02T15:08:26.458Z,1.25
2024-02-02T15:11:07.409Z,0.98
2024-02-02T15:13:35.499Z,1.00
2024-02-02T15:16:08.726Z,1.30
2024-02-02T15:18:36.881Z,1.40
2024-02-02T15:21:04.765Z,1.30
2024-02-02T15:23:32.919Z,1.50
2024-02-02T15:26:03.856Z,1.88
2024-02-02T15:28:34.047Z,1.40
2024-02-02T15:31:01.721Z,1.92
2024-02-02T15:33:29.613Z,1.67
2024-02-02T15:35:57.765Z,2.38
2024-02-02T15:38:26.222Z,1.48
2024-02-02T15:40:55.595Z,1.58
2024-02-02T15:43:26.518Z,1.88
2024-02-02T15:45:54.909Z,1.45
2024-02-02T15:48:22.829Z,1.80
2024-02-02T15:50:50.795Z,1.50
2024-02-02T15:53:19.488Z,2.30
2024-02-02T15:55:51.607Z,2.00
2024-02-02T15:58:19.205Z,1.92
2024-02-02T16:00:47.272Z,2.30
2024-02-02T16:03:19.893Z,1.63
2024-02-02T16:05:47.545Z,1.60
2024-02-02T16:08:15.575Z,1.55
2024-02-02T16:10:45.269Z,1.50
2024-02-02T16:13:18.092Z,2.65
2024-02-02T16:15:48.439Z,3.30
2024-02-02T16:18:37.342Z,2.47
2024-02-02T16:21:18.837Z,1.98
2024-02-02T16:23:48.384Z,3.83
2024-02-02T16:26:23.789Z,2.15
2024-02-02T16:28:52.054Z,1.85
2024-02-02T16:31:20.064Z,2.25
2024-02-02T16:33:50.609Z,2.33
2024-02-02T16:36:18.343Z,1.90
2024-02-02T16:38:48.148Z,1.90
2024-02-02T16:46:06.055Z,2.17
2024-02-02T16:48:37.212Z,1.88
2024-02-02T16:51:05.385Z,1.90
2024-02-02T16:53:35.401Z,1.95
2024-02-02T16:56:18.419Z,1.75
2024-02-02T16:58:46.392Z,1.42
2024-02-02T17:01:14.304Z,1.40
2024-02-02T17:03:43.059Z,1.63
2024-02-02T17:06:11.841Z,4.43
2024-02-02T17:08:41.526Z,8.63
2024-02-02T17:11:26.274Z,2.13
2024-02-02T17:13:55.333Z,1.77
2024-02-02T17:16:25.718Z,1.75
2024-02-02T17:18:54.853Z,1.88
2024-02-02T17:21:25.826Z,2.60
2024-02-02T17:24:07.587Z,2.03
2024-02-02T17:26:41.143Z,2.70
2024-02-02T17:34:44.577Z,3.70
2024-02-02T17:37:16.177Z,3.33
2024-02-02T17:39:49.712Z,2.20
2024-02-02T17:42:48.969Z,2.85
2024-02-02T17:45:53.228Z,2.97
2024-02-02T17:48:48.759Z,1.67
2024-02-02T17:51:21.529Z,2.90
2024-02-02T17:53:54.219Z,4.55
2024-02-02T17:56:23.987Z,2.20
2024-02-02T17:59:12.836Z,1.98
2024-02-02T18:02:12.064Z,3.08
2024-02-02T18:04:43.842Z,2.40
2024-02-02T18:07:13.484Z,2.80
2024-02-02T18:09:41.388Z,1.92
2024-02-02T18:12:13.447Z,1.80
2024-02-02T18:14:42.177Z,1.40
2024-02-02T18:17:10.813Z,1.70
2024-02-02T18:19:38.925Z,1.42
2024-02-02T18:24:58.951Z,1.80
2024-02-02T18:27:26.876Z,1.75
2024-02-02T18:29:55.812Z,1.80
2024-02-02T18:32:23.236Z,2.40
2024-02-02T18:34:53.421Z,1.77
2024-02-02T18:37:42.622Z,2.03
2024-02-02T18:40:10.349Z,2.10
2024-02-02T18:42:38.578Z,1.55
2024-02-02T18:45:06.699Z,1.42
2024-02-02T18:47:34.180Z,1.40
2024-02-02T18:50:10.925Z,1.42
2024-02-02T18:52:48.862Z,1.30
2024-02-02T18:55:41.676Z,1.20
2024-02-02T18:58:12.855Z,1.25
2024-02-02T19:00:45.903Z,1.38
2024-02-02T19:03:16.482Z,1.50
2024-02-02T19:05:44.573Z,1.30
2024-02-02T19:08:13.890Z,1.35
2024-02-02T19:11:16.300Z,1.10
2024-02-02T19:13:44.719Z,1.20
2024-02-02T19:16:18.598Z,1.05
2024-02-02T19:18:46.193Z,1.33
2024-02-02T19:21:23.747Z,1.42
2024-02-02T19:23:51.609Z,1.25
2024-02-02T19:26:25.493Z,2.65
2024-02-02T19:28:59.464Z,0.73
2024-02-02T19:34:00.612Z,1.23
2024-02-02T19:36:29.858Z,1.38
2024-02-02T19:38:58.400Z,4.43
2024-02-02T19:41:33.262Z,1.05
2024-02-02T19:44:10.673Z,1.75
2024-02-02T19:46:41.325Z,1.27
2024-02-02T19:49:11.647Z,1.10
2024-02-02T19:51:45.250Z,1.20
2024-02-02T19:54:13.438Z,1.10
2024-02-02T19:56:47.263Z,1.20
2024-02-02T19:59:21.083Z,0.90
2024-02-02T20:01:52.800Z,1.20
2024-02-02T20:04:20.844Z,0.82
2024-02-02T20:06:49.045Z,1.10
2024-02-02T20:09:23.258Z,1.08
2024-02-02T20:11:54.202Z,1.30
2024-02-02T20:14:22.388Z,1.05
2024-02-02T20:16:53.254Z,1.20
2024-02-02T20:19:23.659Z,1.00
2024-02-02T20:21:51.555Z,1.02
2024-02-02T20:24:22.040Z,0.90
2024-02-02T20:26:52.561Z,1.20
2024-02-02T20:29:20.188Z,1.10
2024-02-02T20:31:51.587Z,0.90
2024-02-02T20:34:19.219Z,0.90
2024-02-02T20:36:46.996Z,1.17
2024-02-02T20:39:14.740Z,2.95
2024-02-02T20:41:42.739Z,12.13
2024-02-02T20:44:10.578Z,1.25
2024-02-02T20:46:38.855Z,1.50
2024-02-02T20:49:09.322Z,1.15
2024-02-02T20:51:43.070Z,1.20
2024-02-02T20:54:14.233Z,1.45
2024-02-02T20:56:43.048Z,0.95
2024-02-02T20:59:18.131Z,1.52
2024-02-02T21:02:24.665Z,0.93
2024-02-02T21:04:52.441Z,0.93
2024-02-02T21:07:20.244Z,1.08
2024-02-02T21:09:47.948Z,1.10
2024-02-02T21:12:15.837Z,0.93
2024-02-02T21:14:43.651Z,1.40
2024-02-02T21:17:13.052Z,1.10
2024-02-02T21:19:42.915Z,1.10
2024-02-02T21:22:10.611Z,1.10
2024-02-02T21:24:38.163Z,1.10
2024-02-02T21:27:08.318Z,1.23
2024-02-02T21:29:39.841Z,0.85
2024-02-02T21:32:09.868Z,1.10
2024-02-02T21:34:37.774Z,1.23
2024-02-02T21:37:05.500Z,1.10
2024-02-02T21:39:33.597Z,0.93
2024-02-02T21:42:01.938Z,1.17
2024-02-02T21:44:30.069Z,1.13
2024-02-02T21:46:59.760Z,1.10
2024-02-02T21:49:27.750Z,0.93
2024-02-02T21:51:57.015Z,0.93
2024-02-02T21:54:30.574Z,1.10
2024-02-02T21:57:01.669Z,1.15
2024-02-02T21:59:33.927Z,1.15
2024-02-02T22:02:03.446Z,0.93
2024-02-02T22:04:31.367Z,1.10
2024-02-02T22:06:59.302Z,1.10
2024-02-02T22:09:29.501Z,1.00
2024-02-02T22:11:57.336Z,0.98
2024-02-02T22:14:25.828Z,1.10
2024-02-02T22:16:54.544Z,0.80
2024-02-02T22:19:24.896Z,1.08
2024-02-02T22:21:54.851Z,1.02
2024-02-02T22:24:22.857Z,0.80
2024-02-02T22:26:50.699Z,1.00
2024-02-02T22:29:18.468Z,0.90
2024-02-02T22:31:46.246Z,1.20
2024-02-02T22:34:14.209Z,1.17
2024-02-02T22:36:44.623Z,0.85
2024-02-02T22:39:12.646Z,1.00
2024-02-02T22:41:40.344Z,1.00
2024-02-02T22:44:08.292Z,1.35
2024-02-02T22:46:36.162Z,1.30
2024-02-02T22:49:04.237Z,1.00
2024-02-02T22:51:32.093Z,0.85
2024-02-02T22:53:59.816Z,1.08
2024-02-02T22:56:30.138Z,0.93
2024-02-02T22:59:00.350Z,1.08
2024-02-02T23:01:28.162Z,1.00
2024-02-02T23:03:57.571Z,1.10
2024-02-02T23:06:25.544Z,0.90
2024-02-02T23:08:53.592Z,0.95
2024-02-02T23:11:21.443Z,1.20
2024-02-02T23:13:49.193Z,0.90
2024-02-02T23:16:16.961Z,1.17
2024-02-02T23:18:46.465Z,1.00
2024-02-02T23:21:14.581Z,0.90
2024-02-02T23:23:43.475Z,1.10
2024-02-02T23:26:14.562Z,1.10
2024-02-02T23:28:42.053Z,1.45
2024-02-02T23:31:12.798Z,1.20
2024-02-02T23:33:41.104Z,0.80
2024-02-02T23:36:08.724Z,1.33
2024-02-02T23:38:36.315Z,0.88
2024-02-02T23:41:03.917Z,1.00
2024-02-02T23:43:31.403Z,1.10
2024-02-02T23:45:59.089Z,0.98
2024-02-02T23:48:26.763Z,0.90
2024-02-02T23:50:54.254Z,1.10
2024-02-02T23:53:21.844Z,0.90
2024-02-02T23:55:49.254Z,1.30
2024-02-02T23:58:16.767Z,0.90
